Nuttings Lake, Massachusetts
Current Conditions -  °F | °C
As of 5:56 AM on Friday 19 Dec 2014 (Local Time) from KBED Reporting Station
Overcast Overcast  
Wind Chill: 25°   Ceiling: 5500
Heat Index: 31°   Visibility: 10mi
Dew Point: 24°   Wind: 6mph
Humidity: 76%   Direction: 290°WNW
Pressure: 29.88"   Gusts: NA
Location:  42.5381°N, 71.2689°W
Report Text: KBED 191056Z AUTO 29005KT 10SM OVC055 M01/M04 A2988 RMK AO2 SLP134 T10061044 TSNO
Loading
Personal Weather Stations






























Interactive Weather Map New forecast layout! Learn more

10-Day Weather Forecast

Advertisements
Track Severe Weather on mobile